sensor_id;sensor_type;location;lat;lon;timestamp;P1;durP1;ratioP1;P2;durP2;ratioP2
49730;SDS011;35622;52.008;5.426;2024-03-17T00:00:01;7.80;;;3.88;;
49730;SDS011;35622;52.008;5.426;2024-03-17T00:02:28;8.90;;;3.90;;
49730;SDS011;35622;52.008;5.426;2024-03-17T00:04:54;10.00;;;4.00;;
49730;SDS011;35622;52.008;5.426;2024-03-17T00:07:19;8.48;;;3.88;;
49730;SDS011;35622;52.008;5.426;2024-03-17T00:09:45;9.90;;;3.87;;
49730;SDS011;35622;52.008;5.426;2024-03-17T00:12:11;7.35;;;3.22;;
49730;SDS011;35622;52.008;5.426;2024-03-17T00:14:37;10.73;;;3.40;;
49730;SDS011;35622;52.008;5.426;2024-03-17T00:17:04;10.43;;;3.40;;
49730;SDS011;35622;52.008;5.426;2024-03-17T00:19:29;10.15;;;3.85;;
49730;SDS011;35622;52.008;5.426;2024-03-17T00:21:55;9.75;;;3.60;;
49730;SDS011;35622;52.008;5.426;2024-03-17T00:24:20;7.60;;;3.30;;
49730;SDS011;35622;52.008;5.426;2024-03-17T00:26:46;8.73;;;3.20;;
49730;SDS011;35622;52.008;5.426;2024-03-17T00:29:14;7.87;;;3.50;;
49730;SDS011;35622;52.008;5.426;2024-03-17T00:31:39;7.82;;;4.05;;
49730;SDS011;35622;52.008;5.426;2024-03-17T00:34:05;8.95;;;3.92;;
49730;SDS011;35622;52.008;5.426;2024-03-17T00:36:31;10.70;;;3.90;;
49730;SDS011;35622;52.008;5.426;2024-03-17T00:38:57;9.55;;;3.70;;
49730;SDS011;35622;52.008;5.426;2024-03-17T00:41:23;11.77;;;4.47;;
49730;SDS011;35622;52.008;5.426;2024-03-17T00:43:49;9.50;;;3.90;;
49730;SDS011;35622;52.008;5.426;2024-03-17T00:46:17;8.77;;;3.70;;
49730;SDS011;35622;52.008;5.426;2024-03-17T00:48:46;6.93;;;3.75;;
49730;SDS011;35622;52.008;5.426;2024-03-17T00:51:13;10.23;;;5.43;;
49730;SDS011;35622;52.008;5.426;2024-03-17T00:53:38;10.55;;;4.28;;
49730;SDS011;35622;52.008;5.426;2024-03-17T00:56:04;10.88;;;4.47;;
49730;SDS011;35622;52.008;5.426;2024-03-17T00:58:30;12.13;;;5.28;;
49730;SDS011;35622;52.008;5.426;2024-03-17T01:00:55;9.88;;;4.93;;
49730;SDS011;35622;52.008;5.426;2024-03-17T01:03:21;13.13;;;7.18;;
49730;SDS011;35622;52.008;5.426;2024-03-17T01:05:46;10.32;;;5.65;;
49730;SDS011;35622;52.008;5.426;2024-03-17T01:08:16;10.02;;;5.75;;
49730;SDS011;35622;52.008;5.426;2024-03-17T01:10:42;11.15;;;5.72;;
49730;SDS011;35622;52.008;5.426;2024-03-17T01:13:09;16.05;;;6.47;;
49730;SDS011;35622;52.008;5.426;2024-03-17T01:15:35;10.20;;;6.65;;
49730;SDS011;35622;52.008;5.426;2024-03-17T01:18:02;11.20;;;5.90;;
49730;SDS011;35622;52.008;5.426;2024-03-17T01:20:29;8.75;;;6.28;;
49730;SDS011;35622;52.008;5.426;2024-03-17T01:22:55;13.90;;;6.28;;
49730;SDS011;35622;52.008;5.426;2024-03-17T01:25:21;10.90;;;6.53;;
49730;SDS011;35622;52.008;5.426;2024-03-17T01:27:46;11.35;;;6.32;;
49730;SDS011;35622;52.008;5.426;2024-03-17T01:30:12;9.68;;;6.30;;
49730;SDS011;35622;52.008;5.426;2024-03-17T01:32:38;11.50;;;6.55;;
49730;SDS011;35622;52.008;5.426;2024-03-17T01:35:03;8.95;;;5.90;;
49730;SDS011;35622;52.008;5.426;2024-03-17T01:37:31;13.10;;;6.93;;
49730;SDS011;35622;52.008;5.426;2024-03-17T01:39:57;13.70;;;7.20;;
49730;SDS011;35622;52.008;5.426;2024-03-17T01:42:23;10.77;;;6.57;;
49730;SDS011;35622;52.008;5.426;2024-03-17T01:44:49;12.73;;;6.43;;
49730;SDS011;35622;52.008;5.426;2024-03-17T01:47:16;10.80;;;7.30;;
49730;SDS011;35622;52.008;5.426;2024-03-17T01:49:44;11.20;;;7.35;;
49730;SDS011;35622;52.008;5.426;2024-03-17T01:52:11;13.27;;;7.60;;
49730;SDS011;35622;52.008;5.426;2024-03-17T01:54:37;12.95;;;7.65;;
49730;SDS011;35622;52.008;5.426;2024-03-17T01:57:03;11.35;;;8.18;;
49730;SDS011;35622;52.008;5.426;2024-03-17T01:59:29;11.35;;;8.05;;
49730;SDS011;35622;52.008;5.426;2024-03-17T02:01:55;14.48;;;8.15;;
49730;SDS011;35622;52.008;5.426;2024-03-17T02:04:22;15.00;;;8.57;;
49730;SDS011;35622;52.008;5.426;2024-03-17T02:06:47;14.23;;;8.80;;
49730;SDS011;35622;52.008;5.426;2024-03-17T02:09:13;15.35;;;8.02;;
49730;SDS011;35622;52.008;5.426;2024-03-17T02:11:38;12.93;;;8.15;;
49730;SDS011;35622;52.008;5.426;2024-03-17T02:14:04;16.48;;;8.88;;
49730;SDS011;35622;52.008;5.426;2024-03-17T02:16:32;16.35;;;8.30;;
49730;SDS011;35622;52.008;5.426;2024-03-17T02:18:58;15.40;;;8.55;;
49730;SDS011;35622;52.008;5.426;2024-03-17T02:21:25;12.40;;;8.55;;
49730;SDS011;35622;52.008;5.426;2024-03-17T02:23:54;17.73;;;8.95;;
49730;SDS011;35622;52.008;5.426;2024-03-17T02:26:20;15.02;;;8.55;;
49730;SDS011;35622;52.008;5.426;2024-03-17T02:28:47;15.07;;;8.57;;
49730;SDS011;35622;52.008;5.426;2024-03-17T02:31:13;12.80;;;8.95;;
49730;SDS011;35622;52.008;5.426;2024-03-17T02:33:41;14.13;;;8.52;;
49730;SDS011;35622;52.008;5.426;2024-03-17T02:36:07;21.65;;;10.60;;
49730;SDS011;35622;52.008;5.426;2024-03-17T02:38:34;14.52;;;8.82;;
49730;SDS011;35622;52.008;5.426;2024-03-17T02:41:18;16.00;;;9.90;;
49730;SDS011;35622;52.008;5.426;2024-03-17T02:43:44;15.82;;;9.75;;
49730;SDS011;35622;52.008;5.426;2024-03-17T02:46:19;16.20;;;9.82;;
49730;SDS011;35622;52.008;5.426;2024-03-17T02:48:52;18.02;;;9.18;;
49730;SDS011;35622;52.008;5.426;2024-03-17T02:51:19;14.88;;;9.50;;
49730;SDS011;35622;52.008;5.426;2024-03-17T02:53:47;14.60;;;9.63;;
49730;SDS011;35622;52.008;5.426;2024-03-17T02:56:14;17.58;;;9.57;;
49730;SDS011;35622;52.008;5.426;2024-03-17T02:58:41;18.05;;;9.85;;
49730;SDS011;35622;52.008;5.426;2024-03-17T03:01:08;16.50;;;10.55;;
49730;SDS011;35622;52.008;5.426;2024-03-17T03:03:36;17.25;;;10.38;;
49730;SDS011;35622;52.008;5.426;2024-03-17T03:06:02;14.93;;;10.07;;
49730;SDS011;35622;52.008;5.426;2024-03-17T03:08:36;15.60;;;10.23;;
49730;SDS011;35622;52.008;5.426;2024-03-17T03:11:04;16.48;;;9.20;;
49730;SDS011;35622;52.008;5.426;2024-03-17T03:13:31;15.43;;;9.57;;
49730;SDS011;35622;52.008;5.426;2024-03-17T03:15:56;16.15;;;11.10;;
49730;SDS011;35622;52.008;5.426;2024-03-17T03:18:22;17.75;;;10.18;;
49730;SDS011;35622;52.008;5.426;2024-03-17T03:20:51;17.63;;;10.50;;
49730;SDS011;35622;52.008;5.426;2024-03-17T03:23:20;15.35;;;9.90;;
49730;SDS011;35622;52.008;5.426;2024-03-17T03:25:46;19.65;;;9.63;;
49730;SDS011;35622;52.008;5.426;2024-03-17T03:28:12;17.70;;;9.77;;
49730;SDS011;35622;52.008;5.426;2024-03-17T03:30:38;15.50;;;10.07;;
49730;SDS011;35622;52.008;5.426;2024-03-17T03:33:04;15.80;;;9.60;;
49730;SDS011;35622;52.008;5.426;2024-03-17T03:35:30;18.75;;;10.88;;
49730;SDS011;35622;52.008;5.426;2024-03-17T03:37:56;14.43;;;9.85;;
49730;SDS011;35622;52.008;5.426;2024-03-17T03:40:22;14.20;;;10.23;;
49730;SDS011;35622;52.008;5.426;2024-03-17T03:42:47;15.77;;;10.00;;
49730;SDS011;35622;52.008;5.426;2024-03-17T03:45:13;16.63;;;10.60;;
49730;SDS011;35622;52.008;5.426;2024-03-17T03:47:39;18.83;;;9.75;;
49730;SDS011;35622;52.008;5.426;2024-03-17T03:50:11;16.90;;;10.70;;
49730;SDS011;35622;52.008;5.426;2024-03-17T03:52:39;13.40;;;9.75;;
49730;SDS011;35622;52.008;5.426;2024-03-17T03:55:08;14.65;;;9.90;;
49730;SDS011;35622;52.008;5.426;2024-03-17T03:57:43;15.95;;;10.57;;
49730;SDS011;35622;52.008;5.426;2024-03-17T04:00:17;15.48;;;10.00;;
49730;SDS011;35622;52.008;5.426;2024-03-17T04:02:47;16.77;;;9.70;;
49730;SDS011;35622;52.008;5.426;2024-03-17T04:05:17;17.33;;;11.35;;
49730;SDS011;35622;52.008;5.426;2024-03-17T04:07:43;14.43;;;9.80;;
49730;SDS011;35622;52.008;5.426;2024-03-17T04:10:11;19.50;;;11.25;;
49730;SDS011;35622;52.008;5.426;2024-03-17T04:12:37;14.82;;;10.07;;
49730;SDS011;35622;52.008;5.426;2024-03-17T04:15:03;15.85;;;9.70;;
49730;SDS011;35622;52.008;5.426;2024-03-17T04:17:31;15.70;;;10.65;;
49730;SDS011;35622;52.008;5.426;2024-03-17T04:19:57;18.48;;;10.50;;
49730;SDS011;35622;52.008;5.426;2024-03-17T04:22:23;13.88;;;9.65;;
49730;SDS011;35622;52.008;5.426;2024-03-17T04:24:49;14.85;;;10.05;;
49730;SDS011;35622;52.008;5.426;2024-03-17T04:27:18;16.67;;;10.23;;
49730;SDS011;35622;52.008;5.426;2024-03-17T04:29:46;15.95;;;10.35;;
49730;SDS011;35622;52.008;5.426;2024-03-17T04:32:13;16.08;;;10.80;;
49730;SDS011;35622;52.008;5.426;2024-03-17T04:34:38;15.90;;;10.23;;
49730;SDS011;35622;52.008;5.426;2024-03-17T04:37:04;15.23;;;10.77;;
49730;SDS011;35622;52.008;5.426;2024-03-17T04:39:30;14.98;;;10.60;;
49730;SDS011;35622;52.008;5.426;2024-03-17T04:41:56;13.77;;;9.57;;
49730;SDS011;35622;52.008;5.426;2024-03-17T04:44:22;15.73;;;9.90;;
49730;SDS011;35622;52.008;5.426;2024-03-17T04:46:48;15.07;;;10.48;;
49730;SDS011;35622;52.008;5.426;2024-03-17T04:49:14;15.80;;;10.52;;
49730;SDS011;35622;52.008;5.426;2024-03-17T04:51:39;15.77;;;9.88;;
49730;SDS011;35622;52.008;5.426;2024-03-17T04:54:05;14.57;;;10.23;;
49730;SDS011;35622;52.008;5.426;2024-03-17T04:56:33;15.88;;;10.00;;
49730;SDS011;35622;52.008;5.426;2024-03-17T04:58:58;15.95;;;10.55;;
49730;SDS011;35622;52.008;5.426;2024-03-17T05:01:24;14.38;;;11.02;;
49730;SDS011;35622;52.008;5.426;2024-03-17T05:03:53;15.20;;;10.07;;
49730;SDS011;35622;52.008;5.426;2024-03-17T05:06:19;15.23;;;10.90;;
49730;SDS011;35622;52.008;5.426;2024-03-17T05:08:44;15.45;;;10.95;;
49730;SDS011;35622;52.008;5.426;2024-03-17T05:11:10;13.85;;;9.82;;
49730;SDS011;35622;52.008;5.426;2024-03-17T05:13:36;15.27;;;10.43;;
49730;SDS011;35622;52.008;5.426;2024-03-17T05:16:05;18.55;;;10.95;;
49730;SDS011;35622;52.008;5.426;2024-03-17T05:18:31;19.77;;;11.43;;
49730;SDS011;35622;52.008;5.426;2024-03-17T05:21:00;14.93;;;11.02;;
49730;SDS011;35622;52.008;5.426;2024-03-17T05:23:30;14.18;;;10.40;;
49730;SDS011;35622;52.008;5.426;2024-03-17T05:25:57;18.70;;;11.25;;
49730;SDS011;35622;52.008;5.426;2024-03-17T05:28:24;15.52;;;11.32;;
49730;SDS011;35622;52.008;5.426;2024-03-17T05:30:50;17.63;;;11.85;;
49730;SDS011;35622;52.008;5.426;2024-03-17T05:33:17;13.90;;;10.70;;
49730;SDS011;35622;52.008;5.426;2024-03-17T05:35:57;15.02;;;10.70;;
49730;SDS011;35622;52.008;5.426;2024-03-17T05:38:24;18.67;;;11.32;;
49730;SDS011;35622;52.008;5.426;2024-03-17T05:40:54;13.05;;;10.07;;
49730;SDS011;35622;52.008;5.426;2024-03-17T05:43:25;13.82;;;11.23;;
49730;SDS011;35622;52.008;5.426;2024-03-17T05:45:52;16.08;;;11.70;;
49730;SDS011;35622;52.008;5.426;2024-03-17T05:48:18;17.48;;;11.35;;
49730;SDS011;35622;52.008;5.426;2024-03-17T05:50:44;18.67;;;11.20;;
49730;SDS011;35622;52.008;5.426;2024-03-17T05:53:10;17.42;;;11.90;;
49730;SDS011;35622;52.008;5.426;2024-03-17T05:55:36;14.45;;;11.27;;
49730;SDS011;35622;52.008;5.426;2024-03-17T05:58:03;16.30;;;11.00;;
49730;SDS011;35622;52.008;5.426;2024-03-17T06:00:29;17.67;;;11.55;;
49730;SDS011;35622;52.008;5.426;2024-03-17T06:02:56;14.68;;;10.82;;
49730;SDS011;35622;52.008;5.426;2024-03-17T06:05:22;15.35;;;11.55;;
49730;SDS011;35622;52.008;5.426;2024-03-17T06:07:48;17.58;;;11.60;;
49730;SDS011;35622;52.008;5.426;2024-03-17T06:10:13;18.05;;;11.32;;
49730;SDS011;35622;52.008;5.426;2024-03-17T06:12:39;15.15;;;11.00;;
49730;SDS011;35622;52.008;5.426;2024-03-17T06:15:05;15.48;;;11.45;;
49730;SDS011;35622;52.008;5.426;2024-03-17T06:17:31;14.93;;;10.88;;
49730;SDS011;35622;52.008;5.426;2024-03-17T06:19:57;15.32;;;11.45;;
49730;SDS011;35622;52.008;5.426;2024-03-17T06:22:23;16.17;;;11.95;;
49730;SDS011;35622;52.008;5.426;2024-03-17T06:24:49;16.13;;;11.90;;
49730;SDS011;35622;52.008;5.426;2024-03-17T06:27:15;16.80;;;11.55;;
49730;SDS011;35622;52.008;5.426;2024-03-17T06:29:41;14.85;;;10.93;;
49730;SDS011;35622;52.008;5.426;2024-03-17T06:32:07;16.55;;;11.00;;
49730;SDS011;35622;52.008;5.426;2024-03-17T06:34:33;15.85;;;10.98;;
49730;SDS011;35622;52.008;5.426;2024-03-17T06:36:59;16.63;;;10.80;;
49730;SDS011;35622;52.008;5.426;2024-03-17T06:39:25;15.55;;;11.52;;
49730;SDS011;35622;52.008;5.426;2024-03-17T06:41:51;15.07;;;11.23;;
49730;SDS011;35622;52.008;5.426;2024-03-17T06:44:17;14.82;;;11.75;;
49730;SDS011;35622;52.008;5.426;2024-03-17T06:46:42;15.80;;;11.90;;
49730;SDS011;35622;52.008;5.426;2024-03-17T06:49:10;15.32;;;11.27;;
49730;SDS011;35622;52.008;5.426;2024-03-17T06:51:35;16.88;;;10.70;;
49730;SDS011;35622;52.008;5.426;2024-03-17T06:54:01;15.23;;;10.80;;
49730;SDS011;35622;52.008;5.426;2024-03-17T06:56:27;16.27;;;11.27;;
49730;SDS011;35622;52.008;5.426;2024-03-17T06:58:53;13.85;;;11.25;;
49730;SDS011;35622;52.008;5.426;2024-03-17T07:01:18;13.77;;;10.63;;
49730;SDS011;35622;52.008;5.426;2024-03-17T07:03:44;14.20;;;10.48;;
49730;SDS011;35622;52.008;5.426;2024-03-17T07:06:10;15.05;;;10.55;;
49730;SDS011;35622;52.008;5.426;2024-03-17T07:08:35;13.77;;;10.40;;
49730;SDS011;35622;52.008;5.426;2024-03-17T07:11:05;13.90;;;9.98;;
49730;SDS011;35622;52.008;5.426;2024-03-17T07:13:32;13.88;;;10.48;;
49730;SDS011;35622;52.008;5.426;2024-03-17T07:16:03;14.55;;;9.90;;
49730;SDS011;35622;52.008;5.426;2024-03-17T07:18:32;15.32;;;9.95;;
49730;SDS011;35622;52.008;5.426;2024-03-17T07:20:59;11.93;;;10.00;;
49730;SDS011;35622;52.008;5.426;2024-03-17T07:23:29;16.95;;;10.75;;
49730;SDS011;35622;52.008;5.426;2024-03-17T07:25:56;13.07;;;10.57;;
49730;SDS011;35622;52.008;5.426;2024-03-17T07:28:22;15.57;;;11.02;;
49730;SDS011;35622;52.008;5.426;2024-03-17T07:30:49;14.35;;;10.35;;
49730;SDS011;35622;52.008;5.426;2024-03-17T07:33:22;15.00;;;10.95;;
49730;SDS011;35622;52.008;5.426;2024-03-17T07:35:49;13.00;;;10.50;;
49730;SDS011;35622;52.008;5.426;2024-03-17T07:38:15;13.65;;;10.20;;
49730;SDS011;35622;52.008;5.426;2024-03-17T07:40:41;13.80;;;10.98;;
49730;SDS011;35622;52.008;5.426;2024-03-17T07:43:08;14.23;;;10.75;;
49730;SDS011;35622;52.008;5.426;2024-03-17T07:45:33;14.68;;;10.63;;
49730;SDS011;35622;52.008;5.426;2024-03-17T07:47:59;12.45;;;10.23;;
49730;SDS011;35622;52.008;5.426;2024-03-17T07:50:25;15.55;;;9.95;;
49730;SDS011;35622;52.008;5.426;2024-03-17T07:52:50;12.45;;;9.85;;
49730;SDS011;35622;52.008;5.426;2024-03-17T07:55:16;14.80;;;10.02;;
49730;SDS011;35622;52.008;5.426;2024-03-17T07:57:41;13.30;;;10.68;;
49730;SDS011;35622;52.008;5.426;2024-03-17T08:00:07;15.18;;;10.88;;
49730;SDS011;35622;52.008;5.426;2024-03-17T08:02:46;14.65;;;10.20;;
49730;SDS011;35622;52.008;5.426;2024-03-17T08:05:11;13.00;;;9.88;;
49730;SDS011;35622;52.008;5.426;2024-03-17T08:07:38;12.52;;;9.77;;
49730;SDS011;35622;52.008;5.426;2024-03-17T08:10:04;14.82;;;10.27;;
49730;SDS011;35622;52.008;5.426;2024-03-17T08:12:30;12.52;;;10.05;;
49730;SDS011;35622;52.008;5.426;2024-03-17T08:14:55;12.57;;;10.15;;
49730;SDS011;35622;52.008;5.426;2024-03-17T08:17:21;12.63;;;9.70;;
49730;SDS011;35622;52.008;5.426;2024-03-17T08:19:47;15.63;;;9.73;;
49730;SDS011;35622;52.008;5.426;2024-03-17T08:22:13;13.60;;;9.32;;
49730;SDS011;35622;52.008;5.426;2024-03-17T08:24:39;12.60;;;9.10;;
49730;SDS011;35622;52.008;5.426;2024-03-17T08:27:05;12.85;;;9.60;;
49730;SDS011;35622;52.008;5.426;2024-03-17T08:29:31;14.20;;;9.65;;
49730;SDS011;35622;52.008;5.426;2024-03-17T08:31:58;12.70;;;9.60;;
49730;SDS011;35622;52.008;5.426;2024-03-17T08:34:24;13.98;;;9.93;;
49730;SDS011;35622;52.008;5.426;2024-03-17T08:36:49;13.20;;;9.18;;
49730;SDS011;35622;52.008;5.426;2024-03-17T08:39:15;14.20;;;9.90;;
49730;SDS011;35622;52.008;5.426;2024-03-17T08:41:41;11.68;;;9.45;;
49730;SDS011;35622;52.008;5.426;2024-03-17T08:44:09;14.55;;;9.63;;
49730;SDS011;35622;52.008;5.426;2024-03-17T08:46:34;12.65;;;9.30;;
49730;SDS011;35622;52.008;5.426;2024-03-17T08:49:00;14.50;;;10.02;;
49730;SDS011;35622;52.008;5.426;2024-03-17T08:51:26;13.80;;;9.38;;
49730;SDS011;35622;52.008;5.426;2024-03-17T08:53:52;11.93;;;9.60;;
49730;SDS011;35622;52.008;5.426;2024-03-17T08:56:18;12.90;;;9.73;;
49730;SDS011;35622;52.008;5.426;2024-03-17T08:58:45;13.35;;;9.65;;
49730;SDS011;35622;52.008;5.426;2024-03-17T09:01:11;13.48;;;9.93;;
49730;SDS011;35622;52.008;5.426;2024-03-17T09:03:40;12.77;;;9.73;;
49730;SDS011;35622;52.008;5.426;2024-03-17T09:06:13;14.27;;;9.98;;
49730;SDS011;35622;52.008;5.426;2024-03-17T09:08:44;13.05;;;10.25;;
49730;SDS011;35622;52.008;5.426;2024-03-17T09:11:11;13.45;;;9.70;;
49730;SDS011;35622;52.008;5.426;2024-03-17T09:13:38;13.38;;;10.20;;
49730;SDS011;35622;52.008;5.426;2024-03-17T09:16:04;12.75;;;9.85;;
49730;SDS011;35622;52.008;5.426;2024-03-17T09:18:33;11.50;;;9.52;;
49730;SDS011;35622;52.008;5.426;2024-03-17T09:21:06;10.75;;;8.93;;
49730;SDS011;35622;52.008;5.426;2024-03-17T09:23:33;12.70;;;9.85;;
49730;SDS011;35622;52.008;5.426;2024-03-17T09:26:03;12.00;;;9.27;;
49730;SDS011;35622;52.008;5.426;2024-03-17T09:28:41;12.52;;;9.38;;
49730;SDS011;35622;52.008;5.426;2024-03-17T09:31:06;12.95;;;9.43;;
49730;SDS011;35622;52.008;5.426;2024-03-17T09:33:32;10.98;;;9.25;;
49730;SDS011;35622;52.008;5.426;2024-03-17T09:38:25;11.48;;;9.13;;
49730;SDS011;35622;52.008;5.426;2024-03-17T09:40:52;13.00;;;9.20;;
49730;SDS011;35622;52.008;5.426;2024-03-17T09:43:21;11.63;;;9.70;;
49730;SDS011;35622;52.008;5.426;2024-03-17T09:45:47;12.93;;;9.98;;
49730;SDS011;35622;52.008;5.426;2024-03-17T09:48:15;13.13;;;9.23;;
49730;SDS011;35622;52.008;5.426;2024-03-17T09:50:51;12.02;;;9.07;;
49730;SDS011;35622;52.008;5.426;2024-03-17T09:56:01;12.50;;;9.52;;
49730;SDS011;35622;52.008;5.426;2024-03-17T09:58:33;12.50;;;9.77;;
49730;SDS011;35622;52.008;5.426;2024-03-17T10:00:59;11.90;;;9.88;;
49730;SDS011;35622;52.008;5.426;2024-03-17T10:06:14;11.02;;;9.10;;
49730;SDS011;35622;52.008;5.426;2024-03-17T10:08:47;11.50;;;8.93;;
49730;SDS011;35622;52.008;5.426;2024-03-17T10:11:19;12.10;;;9.02;;
49730;SDS011;35622;52.008;5.426;2024-03-17T10:13:47;11.90;;;9.25;;
49730;SDS011;35622;52.008;5.426;2024-03-17T10:16:24;11.48;;;9.32;;
49730;SDS011;35622;52.008;5.426;2024-03-17T10:21:35;11.18;;;8.90;;
49730;SDS011;35622;52.008;5.426;2024-03-17T10:24:04;11.20;;;9.43;;
49730;SDS011;35622;52.008;5.426;2024-03-17T10:26:32;13.13;;;9.20;;
49730;SDS011;35622;52.008;5.426;2024-03-17T10:31:55;12.00;;;9.27;;
49730;SDS011;35622;52.008;5.426;2024-03-17T10:34:27;12.15;;;9.27;;
49730;SDS011;35622;52.008;5.426;2024-03-17T10:37:20;10.60;;;8.82;;
49730;SDS011;35622;52.008;5.426;2024-03-17T10:39:50;13.57;;;9.50;;
49730;SDS011;35622;52.008;5.426;2024-03-17T10:42:24;12.88;;;9.68;;
49730;SDS011;35622;52.008;5.426;2024-03-17T10:44:53;10.48;;;8.80;;
49730;SDS011;35622;52.008;5.426;2024-03-17T10:47:22;13.82;;;9.35;;
49730;SDS011;35622;52.008;5.426;2024-03-17T10:49:52;11.73;;;9.40;;
49730;SDS011;35622;52.008;5.426;2024-03-17T10:52:24;14.23;;;9.93;;
49730;SDS011;35622;52.008;5.426;2024-03-17T10:54:51;17.42;;;10.35;;
49730;SDS011;35622;52.008;5.426;2024-03-17T11:00:07;12.77;;;10.00;;
49730;SDS011;35622;52.008;5.426;2024-03-17T11:02:33;12.90;;;9.50;;
49730;SDS011;35622;52.008;5.426;2024-03-17T11:05:04;12.48;;;9.68;;
49730;SDS011;35622;52.008;5.426;2024-03-17T11:07:32;15.80;;;9.23;;
49730;SDS011;35622;52.008;5.426;2024-03-17T11:10:02;11.68;;;9.07;;
49730;SDS011;35622;52.008;5.426;2024-03-17T11:12:43;11.43;;;9.02;;
49730;SDS011;35622;52.008;5.426;2024-03-17T11:17:47;14.82;;;9.02;;
49730;SDS011;35622;52.008;5.426;2024-03-17T11:20:26;13.52;;;9.40;;
49730;SDS011;35622;52.008;5.426;2024-03-17T11:22:57;10.90;;;8.38;;
49730;SDS011;35622;52.008;5.426;2024-03-17T11:27:59;10.98;;;8.73;;
49730;SDS011;35622;52.008;5.426;2024-03-17T11:38:53;12.82;;;8.98;;
49730;SDS011;35622;52.008;5.426;2024-03-17T11:47:01;13.25;;;9.55;;
49730;SDS011;35622;52.008;5.426;2024-03-17T11:52:03;10.68;;;8.73;;
49730;SDS011;35622;52.008;5.426;2024-03-17T11:54:33;12.00;;;8.52;;
49730;SDS011;35622;52.008;5.426;2024-03-17T11:57:01;12.02;;;8.88;;
49730;SDS011;35622;52.008;5.426;2024-03-17T11:59:28;11.23;;;8.65;;
49730;SDS011;35622;52.008;5.426;2024-03-17T12:01:54;12.95;;;8.93;;
49730;SDS011;35622;52.008;5.426;2024-03-17T12:04:21;12.68;;;9.30;;
49730;SDS011;35622;52.008;5.426;2024-03-17T12:06:49;12.25;;;8.63;;
49730;SDS011;35622;52.008;5.426;2024-03-17T12:09:20;12.63;;;8.45;;
49730;SDS011;35622;52.008;5.426;2024-03-17T12:11:47;11.95;;;9.30;;
49730;SDS011;35622;52.008;5.426;2024-03-17T12:14:17;12.48;;;9.02;;
49730;SDS011;35622;52.008;5.426;2024-03-17T12:16:51;15.57;;;8.98;;
49730;SDS011;35622;52.008;5.426;2024-03-17T12:19:18;11.57;;;9.23;;
49730;SDS011;35622;52.008;5.426;2024-03-17T12:21:48;11.60;;;9.48;;
49730;SDS011;35622;52.008;5.426;2024-03-17T12:24:16;9.95;;;8.70;;
49730;SDS011;35622;52.008;5.426;2024-03-17T12:26:43;11.15;;;9.02;;
49730;SDS011;35622;52.008;5.426;2024-03-17T12:32:01;11.05;;;8.30;;
49730;SDS011;35622;52.008;5.426;2024-03-17T12:34:29;13.00;;;8.93;;
49730;SDS011;35622;52.008;5.426;2024-03-17T12:36:56;12.15;;;8.73;;
49730;SDS011;35622;52.008;5.426;2024-03-17T12:39:23;11.60;;;8.68;;
49730;SDS011;35622;52.008;5.426;2024-03-17T12:44:34;11.18;;;8.20;;
49730;SDS011;35622;52.008;5.426;2024-03-17T12:47:02;10.98;;;7.97;;
49730;SDS011;35622;52.008;5.426;2024-03-17T12:49:30;11.52;;;8.68;;
49730;SDS011;35622;52.008;5.426;2024-03-17T12:52:00;11.57;;;7.90;;
49730;SDS011;35622;52.008;5.426;2024-03-17T12:54:26;13.85;;;8.60;;
49730;SDS011;35622;52.008;5.426;2024-03-17T12:57:06;12.73;;;8.02;;
49730;SDS011;35622;52.008;5.426;2024-03-17T12:59:51;12.55;;;8.35;;
49730;SDS011;35622;52.008;5.426;2024-03-17T13:02:42;12.20;;;8.40;;
49730;SDS011;35622;52.008;5.426;2024-03-17T13:07:41;10.00;;;8.23;;
49730;SDS011;35622;52.008;5.426;2024-03-17T13:10:07;10.27;;;8.57;;
49730;SDS011;35622;52.008;5.426;2024-03-17T13:12:34;10.27;;;7.90;;
49730;SDS011;35622;52.008;5.426;2024-03-17T13:14:59;13.05;;;8.73;;
49730;SDS011;35622;52.008;5.426;2024-03-17T13:17:25;12.68;;;9.35;;
49730;SDS011;35622;52.008;5.426;2024-03-17T13:19:54;9.52;;;8.40;;
49730;SDS011;35622;52.008;5.426;2024-03-17T13:22:19;11.50;;;8.95;;
49730;SDS011;35622;52.008;5.426;2024-03-17T13:24:45;10.95;;;8.07;;
49730;SDS011;35622;52.008;5.426;2024-03-17T13:27:12;9.80;;;8.23;;
49730;SDS011;35622;52.008;5.426;2024-03-17T13:29:39;10.93;;;9.02;;
49730;SDS011;35622;52.008;5.426;2024-03-17T13:32:09;12.77;;;8.35;;
49730;SDS011;35622;52.008;5.426;2024-03-17T13:34:34;11.73;;;9.15;;
49730;SDS011;35622;52.008;5.426;2024-03-17T13:37:00;10.20;;;8.73;;
49730;SDS011;35622;52.008;5.426;2024-03-17T13:39:31;11.05;;;8.50;;
49730;SDS011;35622;52.008;5.426;2024-03-17T13:41:58;11.85;;;8.68;;
49730;SDS011;35622;52.008;5.426;2024-03-17T13:44:31;12.48;;;8.43;;
49730;SDS011;35622;52.008;5.426;2024-03-17T13:46:57;11.43;;;8.85;;
49730;SDS011;35622;52.008;5.426;2024-03-17T13:49:23;15.50;;;8.90;;
49730;SDS011;35622;52.008;5.426;2024-03-17T13:51:50;11.23;;;8.90;;
49730;SDS011;35622;52.008;5.426;2024-03-17T13:54:17;13.73;;;9.63;;
49730;SDS011;35622;52.008;5.426;2024-03-17T13:56:46;12.23;;;8.63;;
49730;SDS011;35622;52.008;5.426;2024-03-17T13:59:12;11.30;;;8.80;;
49730;SDS011;35622;52.008;5.426;2024-03-17T14:01:38;13.68;;;8.68;;
49730;SDS011;35622;52.008;5.426;2024-03-17T14:04:03;13.68;;;8.23;;
49730;SDS011;35622;52.008;5.426;2024-03-17T14:06:29;12.38;;;8.48;;
49730;SDS011;35622;52.008;5.426;2024-03-17T14:08:55;10.60;;;8.50;;
49730;SDS011;35622;52.008;5.426;2024-03-17T14:11:21;10.55;;;9.27;;
49730;SDS011;35622;52.008;5.426;2024-03-17T14:13:46;11.90;;;8.35;;
49730;SDS011;35622;52.008;5.426;2024-03-17T14:16:12;10.30;;;8.75;;
49730;SDS011;35622;52.008;5.426;2024-03-17T14:18:37;11.05;;;8.45;;
49730;SDS011;35622;52.008;5.426;2024-03-17T14:21:03;12.48;;;8.43;;
49730;SDS011;35622;52.008;5.426;2024-03-17T14:23:30;12.85;;;8.70;;
49730;SDS011;35622;52.008;5.426;2024-03-17T14:25:56;11.30;;;8.75;;
49730;SDS011;35622;52.008;5.426;2024-03-17T14:28:21;9.85;;;8.13;;
49730;SDS011;35622;52.008;5.426;2024-03-17T14:30:47;9.25;;;7.75;;
49730;SDS011;35622;52.008;5.426;2024-03-17T14:33:13;12.77;;;8.65;;
49730;SDS011;35622;52.008;5.426;2024-03-17T14:35:38;9.48;;;7.75;;
49730;SDS011;35622;52.008;5.426;2024-03-17T14:38:06;10.43;;;8.45;;
49730;SDS011;35622;52.008;5.426;2024-03-17T14:40:33;11.80;;;8.73;;
49730;SDS011;35622;52.008;5.426;2024-03-17T14:43:00;10.73;;;8.40;;
49730;SDS011;35622;52.008;5.426;2024-03-17T14:45:28;11.35;;;8.68;;
49730;SDS011;35622;52.008;5.426;2024-03-17T14:47:53;10.25;;;8.25;;
49730;SDS011;35622;52.008;5.426;2024-03-17T14:50:19;10.05;;;7.55;;
49730;SDS011;35622;52.008;5.426;2024-03-17T14:52:45;11.68;;;8.40;;
49730;SDS011;35622;52.008;5.426;2024-03-17T14:55:11;11.77;;;8.32;;
49730;SDS011;35622;52.008;5.426;2024-03-17T14:57:38;10.95;;;8.07;;
49730;SDS011;35622;52.008;5.426;2024-03-17T15:00:07;10.77;;;8.50;;
49730;SDS011;35622;52.008;5.426;2024-03-17T15:02:44;13.13;;;8.35;;
49730;SDS011;35622;52.008;5.426;2024-03-17T15:05:11;11.68;;;8.35;;
49730;SDS011;35622;52.008;5.426;2024-03-17T15:07:37;11.38;;;7.90;;
49730;SDS011;35622;52.008;5.426;2024-03-17T15:10:04;10.38;;;8.27;;
49730;SDS011;35622;52.008;5.426;2024-03-17T15:12:30;10.85;;;8.70;;
49730;SDS011;35622;52.008;5.426;2024-03-17T15:14:56;12.35;;;8.30;;
49730;SDS011;35622;52.008;5.426;2024-03-17T15:17:21;11.23;;;8.40;;